createdAt,value
2023-01-13T00:03:36.436Z,98188.03
2023-01-13T00:09:38.541Z,98181.03
2023-01-13T00:15:40.533Z,98180.09
2023-01-13T00:21:42.471Z,98178.97
2023-01-13T00:27:44.415Z,98165.25
2023-01-13T00:33:49.156Z,98162.16
2023-01-13T00:39:52.796Z,98161.13
2023-01-13T00:45:55.477Z,98158.00
2023-01-13T00:51:57.418Z,98135.34
2023-01-13T00:58:03.505Z,98136.72
2023-01-13T01:04:05.930Z,98134.88
2023-01-13T01:10:08.765Z,98120.91
2023-01-13T01:16:17.511Z,98111.38
2023-01-13T01:22:19.436Z,98113.44
2023-01-13T01:28:21.412Z,98113.53
2023-01-13T01:34:23.331Z,98100.66
2023-01-13T01:40:27.690Z,98107.38
2023-01-13T01:46:43.820Z,98101.06
2023-01-13T01:52:56.665Z,98098.59
2023-01-13T01:58:58.639Z,98086.63
2023-01-13T02:05:01.415Z,98087.94
2023-01-13T02:11:03.359Z,98075.97
2023-01-13T02:17:53.286Z,98064.41
2023-01-13T02:24:51.963Z,98075.38
2023-01-13T02:31:21.062Z,98078.22
2023-01-13T02:37:31.784Z,98083.06
2023-01-13T02:43:57.160Z,98105.22
2023-01-13T02:50:13.845Z,98102.06
2023-01-13T02:56:17.556Z,98106.13
2023-01-13T03:02:21.477Z,98097.47
2023-01-13T03:09:00.174Z,98103.34
2023-01-13T03:15:24.415Z,98094.00
2023-01-13T03:21:31.121Z,98094.97
2023-01-13T03:27:35.181Z,98095.78
2023-01-13T03:33:53.616Z,98121.84
2023-01-13T03:40:03.877Z,98147.06
2023-01-13T03:46:19.760Z,98132.81
2023-01-13T03:52:32.172Z,98149.97
2023-01-13T03:58:41.314Z,98153.63
2023-01-13T04:04:50.623Z,98149.16
2023-01-13T04:11:19.697Z,98171.59
2023-01-13T04:17:22.191Z,98108.59
2023-01-13T04:23:25.012Z,98132.91
2023-01-13T04:29:27.467Z,98129.88
2023-01-13T04:35:29.475Z,98156.03
2023-01-13T04:41:54.387Z,98081.34
2023-01-13T04:47:56.369Z,98118.44
2023-01-13T04:53:58.267Z,98117.88
2023-01-13T05:00:00.404Z,98112.22
2023-01-13T05:06:02.679Z,98066.09
2023-01-13T05:12:23.159Z,98122.78
2023-01-13T05:18:25.506Z,98120.91
2023-01-13T05:24:45.722Z,98098.78
2023-01-13T05:30:52.566Z,98082.34
2023-01-13T05:36:54.547Z,98094.03
2023-01-13T05:43:24.528Z,98112.00
2023-01-13T05:49:26.481Z,98114.91
2023-01-13T05:55:28.370Z,98129.53
2023-01-13T06:01:30.330Z,98136.28
2023-01-13T06:07:32.309Z,98175.38
2023-01-13T06:13:34.318Z,98162.25
2023-01-13T06:19:36.687Z,98158.44
2023-01-13T06:26:12.198Z,98153.47
2023-01-13T06:32:28.172Z,98140.59
2023-01-13T06:38:36.061Z,98140.00
2023-01-13T06:44:38.096Z,98153.94
2023-01-13T06:50:40.022Z,98148.44
2023-01-13T06:56:42.018Z,98157.06
2023-01-13T07:02:43.977Z,98163.59
2023-01-13T07:08:45.879Z,98150.22
2023-01-13T07:15:06.274Z,98148.78
2023-01-13T07:21:10.856Z,98136.47
2023-01-13T07:27:13.055Z,98127.72
2023-01-13T07:33:14.966Z,98141.91
2023-01-13T07:39:16.935Z,98152.63
2023-01-13T07:45:18.812Z,98166.16
2023-01-13T07:51:20.682Z,98172.13
2023-01-13T07:57:22.564Z,98188.63
2023-01-13T08:03:25.028Z,98179.31
2023-01-13T08:09:26.935Z,98195.88
2023-01-13T08:15:29.782Z,98201.00
2023-01-13T08:21:31.686Z,98206.09
2023-01-13T08:27:34.236Z,98212.19
2023-01-13T08:33:36.547Z,98214.22
2023-01-13T08:39:38.539Z,98210.91
2023-01-13T08:45:40.433Z,98213.97
2023-01-13T08:51:42.311Z,98217.25
2023-01-13T08:57:44.481Z,98228.50
2023-01-13T09:03:46.407Z,98239.97
2023-01-13T09:09:48.340Z,98232.84
2023-01-13T09:15:51.640Z,98227.09
2023-01-13T09:21:55.998Z,98241.28
2023-01-13T09:27:58.332Z,98240.25
2023-01-13T09:34:24.301Z,98237.13
2023-01-13T09:40:26.296Z,98251.75
2023-01-13T09:46:44.511Z,98242.88
2023-01-13T09:52:46.654Z,98249.56
2023-01-13T09:58:48.724Z,98256.28
2023-01-13T10:05:13.116Z,98258.97
2023-01-13T10:11:48.216Z,98261.19
2023-01-13T10:18:33.354Z,98257.44
2023-01-13T10:25:20.356Z,98272.03
2023-01-13T10:31:24.287Z,98268.06
2023-01-13T10:37:28.523Z,98263.34
2023-01-13T10:43:31.496Z,98266.19
2023-01-13T10:49:38.690Z,98275.88
2023-01-13T10:55:41.318Z,98273.50
2023-01-13T11:02:01.148Z,98287.91
2023-01-13T11:08:05.626Z,98269.53
2023-01-13T11:14:36.849Z,98264.97
2023-01-13T11:20:42.585Z,98287.09
2023-01-13T11:26:53.287Z,98269.00
2023-01-13T11:33:04.551Z,98272.50
2023-01-13T11:39:47.709Z,98252.16
2023-01-13T11:45:58.345Z,98255.84
2023-01-13T11:52:16.503Z,98261.13
2023-01-13T11:58:50.323Z,98270.91
2023-01-13T12:04:55.823Z,98313.09
2023-01-13T12:12:06.360Z,98314.19
2023-01-13T12:18:23.112Z,98293.88
2023-01-13T12:24:55.804Z,98295.50
2023-01-13T12:31:03.009Z,98305.66
2023-01-13T12:37:44.884Z,98300.81
2023-01-13T12:44:08.457Z,98302.34
2023-01-13T12:50:22.632Z,98304.06
2023-01-13T12:56:27.509Z,98312.63
2023-01-13T13:02:41.987Z,98300.53
2023-01-13T13:09:17.925Z,98294.44
2023-01-13T13:15:35.508Z,98283.91
2023-01-13T13:22:14.594Z,98266.31
2023-01-13T13:28:19.095Z,98264.91
2023-01-13T13:34:50.197Z,98255.66
2023-01-13T13:41:10.814Z,98260.25
2023-01-13T13:47:12.735Z,98271.94
2023-01-13T13:53:14.811Z,98270.69
2023-01-13T13:59:26.750Z,98266.41
2023-01-13T14:05:29.898Z,98265.53
2023-01-13T14:11:33.653Z,98314.84
2023-01-13T14:17:35.783Z,98317.75
2023-01-13T14:23:37.711Z,98314.13
2023-01-13T14:29:39.985Z,98330.00
2023-01-13T14:36:04.667Z,98320.16
2023-01-13T14:42:16.268Z,98329.81
2023-01-13T14:48:18.152Z,98362.88
2023-01-13T14:54:45.143Z,98418.31
2023-01-13T15:00:47.497Z,98437.13
2023-01-13T15:06:53.212Z,98435.31
2023-01-13T15:12:57.960Z,98442.00
2023-01-13T15:18:59.832Z,98449.00
2023-01-13T15:25:01.730Z,98447.38
2023-01-13T15:31:03.922Z,98462.34
2023-01-13T15:37:08.653Z,98440.09
2023-01-13T15:43:41.495Z,98449.38
2023-01-13T15:49:45.251Z,98447.94
2023-01-13T15:55:54.329Z,98461.13
2023-01-13T16:01:56.227Z,98480.44
2023-01-13T16:07:58.305Z,98500.59
2023-01-13T16:14:00.248Z,98510.97
2023-01-13T16:20:02.367Z,98534.16
2023-01-13T16:26:24.716Z,98567.13
2023-01-13T16:32:26.613Z,98571.31
2023-01-13T16:38:28.534Z,98567.75
2023-01-13T16:44:30.514Z,98568.38
2023-01-13T16:50:42.946Z,98581.22
2023-01-13T16:56:45.215Z,98587.66
2023-01-13T17:02:47.473Z,98600.53
2023-01-13T17:08:49.472Z,98606.63
2023-01-13T17:14:51.369Z,98611.94
2023-01-13T17:20:53.253Z,98623.50
2023-01-13T17:26:55.237Z,98616.31
2023-01-13T17:32:57.328Z,98624.28
2023-01-13T17:38:59.388Z,98636.56
2023-01-13T17:45:01.258Z,98638.19
2023-01-13T17:51:06.782Z,98627.28
2023-01-13T17:57:08.843Z,98639.91
2023-01-13T18:03:12.104Z,98640.50
2023-01-13T18:09:14.550Z,98652.19
2023-01-13T18:15:16.502Z,98664.78
2023-01-13T18:21:39.158Z,98676.13
2023-01-13T18:27:41.708Z,98688.03
2023-01-13T18:33:43.708Z,98693.28
2023-01-13T18:39:45.656Z,98707.31
2023-01-13T18:45:51.345Z,98709.06
2023-01-13T18:51:53.402Z,98714.28
2023-01-13T18:57:56.529Z,98715.56
2023-01-13T19:04:03.799Z,98723.97
2023-01-13T19:10:09.546Z,98716.16
2023-01-13T19:16:11.560Z,98718.16
2023-01-13T19:22:20.305Z,98739.06
2023-01-13T19:28:22.347Z,98750.59
2023-01-13T19:34:25.350Z,98753.28
2023-01-13T19:40:27.261Z,98768.50
2023-01-13T19:46:29.154Z,98767.56
2023-01-13T19:52:32.356Z,98790.88
2023-01-13T19:58:34.309Z,98792.66
2023-01-13T20:04:38.481Z,98799.06
2023-01-13T20:10:41.324Z,98821.63
2023-01-13T20:16:43.258Z,98799.25
2023-01-13T20:22:45.186Z,98819.94
2023-01-13T20:28:47.631Z,98808.81
2023-01-13T20:34:49.519Z,98840.25
2023-01-13T20:41:21.688Z,98844.44
2023-01-13T20:47:23.715Z,98846.34
2023-01-13T20:53:25.681Z,98853.47
2023-01-13T20:59:27.563Z,98844.84
2023-01-13T21:05:29.539Z,98859.03
2023-01-13T21:11:50.343Z,98856.81
2023-01-13T21:18:10.980Z,98850.22
2023-01-13T21:24:14.003Z,98853.91
2023-01-13T21:30:17.593Z,98857.31
2023-01-13T21:36:19.547Z,98867.13
2023-01-13T21:42:40.004Z,98866.09
2023-01-13T21:48:41.888Z,98873.63
2023-01-13T21:55:02.217Z,98877.88
2023-01-13T22:01:04.416Z,98889.53
2023-01-13T22:07:06.816Z,98907.56
2023-01-13T22:13:29.275Z,98915.41
2023-01-13T22:19:31.260Z,98928.09
2023-01-13T22:25:33.152Z,98940.03
2023-01-13T22:31:35.194Z,98940.94
2023-01-13T22:37:37.903Z,98944.16
2023-01-13T22:43:40.917Z,98953.13
2023-01-13T22:49:47.518Z,98954.78
2023-01-13T22:55:57.425Z,98976.41
2023-01-13T23:01:59.317Z,98970.38
2023-01-13T23:08:01.233Z,98983.72
2023-01-13T23:14:06.588Z,99006.81
2023-01-13T23:20:09.640Z,98999.56
2023-01-13T23:26:12.503Z,98995.91
2023-01-13T23:32:14.379Z,99001.00
2023-01-13T23:38:16.296Z,99011.88
2023-01-13T23:44:18.180Z,99008.84
2023-01-13T23:50:20.278Z,99015.31
2023-01-13T23:56:28.946Z,99020.00
